createdAt,value
2022-10-20T00:00:21.413Z,100901.03
2022-10-20T00:02:48.293Z,100894.19
2022-10-20T00:05:15.259Z,100909.16
2022-10-20T00:07:42.133Z,100909.47
2022-10-20T00:10:09.490Z,100912.97
2022-10-20T00:12:36.829Z,100917.31
2022-10-20T00:15:04.346Z,100909.06
2022-10-20T00:17:31.191Z,100908.50
2022-10-20T00:19:58.626Z,100918.75
2022-10-20T00:22:25.486Z,100918.53
2022-10-20T00:24:52.657Z,100904.38
2022-10-20T00:27:19.485Z,100910.91
2022-10-20T00:29:48.587Z,100904.75
2022-10-20T00:32:15.949Z,100915.47
2022-10-20T00:34:42.765Z,100921.78
2022-10-20T00:37:09.668Z,100923.84
2022-10-20T00:39:36.554Z,100934.56
2022-10-20T00:42:04.492Z,100926.28
2022-10-20T00:44:57.244Z,100927.09
2022-10-20T00:47:39.236Z,100922.59
2022-10-20T00:50:12.022Z,100917.63
2022-10-20T00:52:40.333Z,100924.66
2022-10-20T00:55:11.851Z,100931.59
2022-10-20T00:57:39.326Z,100933.75
2022-10-20T01:00:08.948Z,100933.59
2022-10-20T01:02:36.467Z,100930.94
2022-10-20T01:05:03.676Z,100941.81
2022-10-20T01:07:30.668Z,100935.19
2022-10-20T01:09:57.677Z,100940.75
2022-10-20T01:12:39.459Z,100948.19
2022-10-20T01:15:12.588Z,100948.19
2022-10-20T01:17:59.616Z,100950.22
2022-10-20T01:20:52.837Z,100959.84
2022-10-20T01:23:43.929Z,100966.13
2022-10-20T01:26:32.188Z,100968.88
2022-10-20T01:29:13.261Z,100964.41
2022-10-20T01:31:40.063Z,100956.84
2022-10-20T01:34:27.035Z,100966.59
2022-10-20T01:36:53.813Z,100962.19
2022-10-20T01:39:36.069Z,100958.28
2022-10-20T01:42:14.144Z,100958.88
2022-10-20T01:44:43.268Z,100964.81
2022-10-20T01:47:12.078Z,100956.44
2022-10-20T01:49:43.688Z,100957.03
2022-10-20T01:52:11.879Z,100962.13
2022-10-20T01:54:39.484Z,100959.56
2022-10-20T01:57:18.609Z,100964.84
2022-10-20T02:00:05.163Z,100962.75
2022-10-20T02:03:14.758Z,100962.75
2022-10-20T02:05:53.789Z,100971.50
2022-10-20T02:08:31.565Z,100969.97
2022-10-20T02:11:02.965Z,100981.91
2022-10-20T02:13:31.402Z,100979.13
2022-10-20T02:16:03.021Z,100979.94
2022-10-20T02:18:38.976Z,100982.53
2022-10-20T02:21:07.548Z,100993.19
2022-10-20T02:23:37.883Z,100997.63
2022-10-20T02:26:09.240Z,100988.16
2022-10-20T02:28:39.049Z,100989.06
2022-10-20T02:31:06.238Z,100998.69
2022-10-20T02:33:35.215Z,100999.50
2022-10-20T02:36:05.945Z,100998.47
2022-10-20T02:38:32.849Z,101007.31
2022-10-20T02:40:59.774Z,101013.44
2022-10-20T02:43:26.654Z,100999.13
2022-10-20T02:45:53.529Z,100993.78
2022-10-20T02:48:20.385Z,100993.56
2022-10-20T02:50:47.231Z,100993.22
2022-10-20T02:53:14.054Z,100994.84
2022-10-20T02:55:42.605Z,100999.41
2022-10-20T02:58:10.129Z,101008.72
2022-10-20T03:00:37.182Z,101010.91
2022-10-20T03:03:04.107Z,101014.22
2022-10-20T03:05:30.978Z,101023.22
2022-10-20T03:07:57.865Z,101028.72
2022-10-20T03:10:24.708Z,101025.34
2022-10-20T03:12:51.585Z,101014.31
2022-10-20T03:15:18.434Z,101016.28
2022-10-20T03:17:45.249Z,101019.06
2022-10-20T03:20:12.216Z,101017.19
2022-10-20T03:22:39.055Z,101020.41
2022-10-20T03:25:06.113Z,101013.22
2022-10-20T03:27:33.057Z,101023.72
2022-10-20T03:30:00.155Z,101027.47
2022-10-20T03:32:27.061Z,101033.72
2022-10-20T03:34:53.899Z,101045.53
2022-10-20T03:37:20.917Z,101043.94
2022-10-20T03:39:47.735Z,101041.91
2022-10-20T03:42:15.263Z,101045.75
2022-10-20T03:44:45.024Z,101051.38
2022-10-20T03:47:13.405Z,101049.75
2022-10-20T03:49:40.693Z,101048.47
2022-10-20T03:52:07.713Z,101045.41
2022-10-20T03:54:36.063Z,101060.94
2022-10-20T03:57:06.877Z,101051.28
2022-10-20T03:59:34.860Z,101067.09
2022-10-20T04:02:01.956Z,101068.91
2022-10-20T04:04:29.060Z,101073.72
2022-10-20T04:06:55.907Z,101070.22
2022-10-20T04:09:22.735Z,101082.03
2022-10-20T04:11:49.663Z,101079.97
2022-10-20T04:14:16.503Z,101073.59
2022-10-20T04:16:43.396Z,101084.75
2022-10-20T04:19:10.315Z,101076.22
2022-10-20T04:21:37.212Z,101087.78
2022-10-20T04:24:05.365Z,101080.88
2022-10-20T04:26:32.407Z,101090.88
2022-10-20T04:28:59.294Z,101092.88
2022-10-20T04:31:26.176Z,101092.34
2022-10-20T04:33:53.053Z,101090.97
2022-10-20T04:36:19.958Z,101101.06
2022-10-20T04:38:46.798Z,101098.56
2022-10-20T04:41:13.634Z,101096.91
2022-10-20T04:43:40.571Z,101104.16
2022-10-20T04:46:08.699Z,101104.75
2022-10-20T04:48:37.234Z,101111.16
2022-10-20T04:51:09.510Z,101112.72
2022-10-20T04:53:37.081Z,101120.41
2022-10-20T04:56:05.604Z,101131.84
2022-10-20T04:58:33.803Z,101115.69
2022-10-20T05:01:08.837Z,101126.91
2022-10-20T05:03:36.930Z,101131.66
2022-10-20T05:06:33.538Z,101137.44
2022-10-20T05:09:05.757Z,101121.53
2022-10-20T05:11:36.247Z,101131.97
2022-10-20T05:14:03.106Z,101139.81
2022-10-20T05:16:30.048Z,101146.72
2022-10-20T05:18:58.276Z,101138.38
2022-10-20T05:21:27.417Z,101143.34
2022-10-20T05:23:59.085Z,101154.72
2022-10-20T05:26:28.388Z,101158.06
2022-10-20T05:28:55.543Z,101159.16
2022-10-20T05:31:23.344Z,101158.38
2022-10-20T05:33:52.990Z,101164.28
2022-10-20T05:36:23.091Z,101171.16
2022-10-20T05:38:52.276Z,101177.66
2022-10-20T05:41:21.494Z,101174.19
2022-10-20T05:43:53.929Z,101184.44
2022-10-20T05:46:21.268Z,101192.00
2022-10-20T05:48:48.179Z,101188.00
2022-10-20T05:51:17.842Z,101193.91
2022-10-20T05:53:47.096Z,101190.03
2022-10-20T05:56:17.671Z,101197.16
2022-10-20T05:58:44.812Z,101203.44
2022-10-20T06:01:24.865Z,101200.81
2022-10-20T06:04:00.501Z,101202.56
2022-10-20T06:06:29.923Z,101218.56
2022-10-20T06:08:59.452Z,101232.16
2022-10-20T06:11:27.330Z,101216.56
2022-10-20T06:13:54.226Z,101229.44
2022-10-20T06:16:24.628Z,101239.06
2022-10-20T06:18:52.308Z,101250.22
2022-10-20T06:21:20.362Z,101243.13
2022-10-20T06:23:47.844Z,101254.91
2022-10-20T06:26:20.608Z,101245.25
2022-10-20T06:28:50.541Z,101250.63
2022-10-20T06:31:20.042Z,101248.13
2022-10-20T06:33:47.780Z,101261.63
2022-10-20T06:36:15.570Z,101260.00
2022-10-20T06:38:43.464Z,101262.41
2022-10-20T06:41:13.523Z,101267.22
2022-10-20T06:43:40.605Z,101263.47
2022-10-20T06:46:12.080Z,101279.03
2022-10-20T06:48:39.056Z,101279.41
2022-10-20T06:51:10.047Z,101251.81
2022-10-20T06:53:38.912Z,101291.25
2022-10-20T06:56:13.772Z,101272.72
2022-10-20T06:58:42.815Z,101279.53
2022-10-20T07:01:15.228Z,101293.72
2022-10-20T07:03:43.665Z,101276.03
2022-10-20T07:06:14.717Z,101305.94
2022-10-20T07:08:41.766Z,101308.44
2022-10-20T07:11:20.469Z,101285.88
2022-10-20T07:13:49.431Z,101307.53
2022-10-20T07:16:20.007Z,101311.22
2022-10-20T07:18:47.767Z,101310.00
2022-10-20T07:21:17.257Z,101310.41
2022-10-20T07:23:44.725Z,101316.72
2022-10-20T07:26:16.776Z,101301.78
2022-10-20T07:28:46.543Z,101309.97
2022-10-20T07:31:22.271Z,101317.91
2022-10-20T07:34:07.071Z,101313.09
2022-10-20T07:36:38.344Z,101315.41
2022-10-20T07:39:06.302Z,101325.94
2022-10-20T07:41:34.562Z,101325.59
2022-10-20T07:44:01.784Z,101332.31
2022-10-20T07:46:28.788Z,101331.31
2022-10-20T07:49:02.726Z,101343.34
2022-10-20T07:51:38.515Z,101326.53
2022-10-20T07:54:07.589Z,101331.06
2022-10-20T07:56:38.498Z,101327.94
2022-10-20T07:59:06.758Z,101325.19
2022-10-20T08:01:34.627Z,101319.13
2022-10-20T08:04:01.565Z,101344.75
2022-10-20T08:06:28.551Z,101343.63
2022-10-20T08:08:55.520Z,101332.22
2022-10-20T08:11:22.999Z,101339.78
2022-10-20T08:13:49.857Z,101318.28
2022-10-20T08:16:17.466Z,101346.41
2022-10-20T08:18:49.267Z,101350.44
2022-10-20T08:21:19.242Z,101357.25
2022-10-20T08:23:47.958Z,101347.44
2022-10-20T08:26:20.347Z,101364.66
2022-10-20T08:28:48.788Z,101365.19
2022-10-20T08:31:16.987Z,101369.94
2022-10-20T08:33:45.293Z,101370.69
2022-10-20T08:36:15.050Z,101380.31
2022-10-20T08:38:43.531Z,101372.78
2022-10-20T08:41:23.543Z,101396.75
2022-10-20T08:43:54.195Z,101397.38
2022-10-20T08:46:27.329Z,101391.66
2022-10-20T08:48:54.346Z,101398.06
2022-10-20T08:51:24.311Z,101406.81
2022-10-20T08:53:55.787Z,101409.16
2022-10-20T08:56:25.727Z,101417.44
2022-10-20T08:58:53.071Z,101414.31
2022-10-20T09:01:21.889Z,101418.31
2022-10-20T09:03:56.748Z,101423.06
2022-10-20T09:06:23.835Z,101417.66
2022-10-20T09:08:51.485Z,101422.81
2022-10-20T09:11:28.675Z,101420.41
2022-10-20T09:13:55.811Z,101427.00
2022-10-20T09:16:40.822Z,101414.97
2022-10-20T09:19:21.521Z,101413.41
2022-10-20T09:21:53.039Z,101429.41
2022-10-20T09:24:22.428Z,101427.94
2022-10-20T09:26:58.800Z,101436.66
2022-10-20T09:29:38.983Z,101422.34
2022-10-20T09:32:52.924Z,101420.72
2022-10-20T09:35:34.088Z,101423.09
2022-10-20T09:38:17.358Z,101424.56
2022-10-20T09:41:10.365Z,101424.84
2022-10-20T09:43:58.206Z,101419.81
2022-10-20T09:46:40.180Z,101429.94
2022-10-20T09:49:08.261Z,101435.25
2022-10-20T09:51:35.320Z,101433.44
2022-10-20T09:54:08.075Z,101427.72
2022-10-20T09:56:43.301Z,101416.69
2022-10-20T09:59:22.082Z,101426.47
2022-10-20T10:01:59.773Z,101422.38
2022-10-20T10:04:34.085Z,101415.91
2022-10-20T10:07:01.949Z,101422.84
2022-10-20T10:09:38.356Z,101416.72
2022-10-20T10:12:26.384Z,101419.94
2022-10-20T10:15:20.675Z,101408.09
2022-10-20T10:17:47.674Z,101408.06
2022-10-20T10:20:14.862Z,101408.69
2022-10-20T10:22:42.312Z,101414.75
2022-10-20T10:25:27.907Z,101415.03
2022-10-20T10:28:08.992Z,101417.72
2022-10-20T10:30:38.341Z,101407.47
2022-10-20T10:33:25.457Z,101407.41
2022-10-20T10:35:52.797Z,101400.44
2022-10-20T10:38:20.231Z,101389.63
2022-10-20T10:40:47.044Z,101398.75
2022-10-20T10:43:32.063Z,101405.06
2022-10-20T10:46:26.189Z,101390.72
2022-10-20T10:49:05.619Z,101394.28
2022-10-20T10:52:09.677Z,101391.19
2022-10-20T10:55:04.178Z,101390.56
2022-10-20T10:57:37.079Z,101383.03
2022-10-20T11:00:16.384Z,101386.19
2022-10-20T11:02:58.017Z,101387.75
2022-10-20T11:05:41.864Z,101377.75
2022-10-20T11:08:11.606Z,101387.06
2022-10-20T11:11:07.268Z,101388.34
2022-10-20T11:13:40.203Z,101374.75
2022-10-20T11:16:44.169Z,101381.66
2022-10-20T11:19:22.924Z,101373.47
2022-10-20T11:22:10.540Z,101380.03
2022-10-20T11:24:49.331Z,101380.94
2022-10-20T11:27:27.849Z,101379.69
2022-10-20T11:30:22.253Z,101386.78
2022-10-20T11:33:21.074Z,101377.72
2022-10-20T11:36:03.766Z,101382.50
2022-10-20T11:38:35.517Z,101376.84
2022-10-20T11:41:17.201Z,101378.88
2022-10-20T11:43:55.455Z,101378.16
2022-10-20T11:46:32.103Z,101390.72
2022-10-20T11:49:01.852Z,101383.19
2022-10-20T11:51:30.969Z,101379.22
2022-10-20T11:54:03.878Z,101378.28
2022-10-20T11:57:03.738Z,101386.13
2022-10-20T11:59:55.541Z,101387.06
2022-10-20T12:02:25.156Z,101382.66
2022-10-20T12:04:54.872Z,101381.63
2022-10-20T12:07:46.989Z,101392.91
2022-10-20T12:10:33.059Z,101386.75
2022-10-20T12:13:05.854Z,101385.22
2022-10-20T12:15:33.114Z,101387.22
2022-10-20T12:18:05.654Z,101387.66
2022-10-20T12:20:38.673Z,101391.44
2022-10-20T12:23:05.663Z,101391.72
2022-10-20T12:25:38.624Z,101392.56
2022-10-20T12:28:20.627Z,101396.50
2022-10-20T12:30:55.377Z,101399.28
2022-10-20T12:33:49.521Z,101399.53
2022-10-20T12:36:19.397Z,101397.97
2022-10-20T12:38:53.262Z,101398.94
2022-10-20T12:41:35.508Z,101397.66
2022-10-20T12:44:07.584Z,101403.72
2022-10-20T12:46:51.739Z,101402.53
2022-10-20T12:49:29.956Z,101397.34
2022-10-20T12:51:59.576Z,101400.69
2022-10-20T12:54:34.667Z,101415.94
2022-10-20T12:57:06.091Z,101410.09
2022-10-20T12:59:32.952Z,101421.63
2022-10-20T13:02:08.703Z,101418.66
2022-10-20T13:04:58.209Z,101419.06
2022-10-20T13:07:46.813Z,101419.13
2022-10-20T13:10:31.615Z,101424.81
2022-10-20T13:13:01.450Z,101422.09
2022-10-20T13:15:39.163Z,101429.41
2022-10-20T13:18:12.397Z,101431.78
2022-10-20T13:21:02.672Z,101438.78
2022-10-20T13:23:41.254Z,101432.44
2022-10-20T13:26:26.259Z,101427.09
2022-10-20T13:28:55.853Z,101421.59
2022-10-20T13:31:31.025Z,101418.16
2022-10-20T13:34:16.072Z,101426.03
2022-10-20T13:37:21.626Z,101427.41
2022-10-20T13:40:18.832Z,101431.59
2022-10-20T13:43:23.912Z,101431.06
2022-10-20T13:46:11.962Z,101429.38
2022-10-20T13:49:13.726Z,101423.06
2022-10-20T13:51:49.778Z,101420.34
2022-10-20T13:54:26.977Z,101439.44
2022-10-20T13:56:54.981Z,101439.06
2022-10-20T13:59:25.252Z,101440.84
2022-10-20T14:02:01.441Z,101443.75
2022-10-20T14:04:36.581Z,101445.16
2022-10-20T14:07:10.064Z,101443.50
2022-10-20T14:09:39.517Z,101446.56
2022-10-20T14:12:26.417Z,101442.06
2022-10-20T14:15:01.464Z,101444.97
2022-10-20T14:17:28.938Z,101442.69
2022-10-20T14:20:18.543Z,101439.59
2022-10-20T14:22:46.215Z,101435.81
2022-10-20T14:25:13.477Z,101434.00
2022-10-20T14:27:40.779Z,101439.34
2022-10-20T14:30:08.703Z,101435.28
2022-10-20T14:32:40.035Z,101439.19
2022-10-20T14:35:29.848Z,101442.75
2022-10-20T14:37:59.704Z,101453.97
2022-10-20T14:40:33.422Z,101448.00
2022-10-20T14:43:04.681Z,101449.22
2022-10-20T14:48:01.736Z,101444.09
2022-10-20T14:50:31.334Z,101457.06
2022-10-20T14:53:15.626Z,101455.22
2022-10-20T14:55:42.646Z,101455.19
2022-10-20T14:58:33.225Z,101458.19
2022-10-20T15:01:20.073Z,101455.19
2022-10-20T15:03:47.119Z,101457.09
2022-10-20T15:06:18.196Z,101461.34
2022-10-20T15:08:57.834Z,101453.91
2022-10-20T15:11:28.163Z,101460.38
2022-10-20T15:13:59.120Z,101456.44
2022-10-20T15:16:44.612Z,101464.78
2022-10-20T15:19:28.318Z,101465.88
2022-10-20T15:22:01.739Z,101468.47
2022-10-20T15:24:29.352Z,101472.81
2022-10-20T15:26:57.311Z,101476.97
2022-10-20T15:29:24.771Z,101478.16
2022-10-20T15:31:52.031Z,101477.25
2022-10-20T15:34:18.887Z,101487.38
2022-10-20T15:36:48.891Z,101486.53
2022-10-20T15:39:18.165Z,101488.22
2022-10-20T15:41:45.642Z,101503.91
2022-10-20T15:44:22.450Z,101498.53
2022-10-20T15:46:53.596Z,101505.44
2022-10-20T15:49:21.299Z,101513.47
2022-10-20T15:51:50.554Z,101505.84
2022-10-20T15:54:20.551Z,101515.47
2022-10-20T15:56:47.961Z,101516.56
2022-10-20T15:59:14.872Z,101517.72
2022-10-20T16:01:41.795Z,101515.97
2022-10-20T16:04:19.022Z,101524.59
2022-10-20T16:06:45.962Z,101522.84
2022-10-20T16:09:15.793Z,101528.81
2022-10-20T16:11:43.718Z,101533.81
2022-10-20T16:14:10.937Z,101538.91
2022-10-20T16:16:37.875Z,101538.59
2022-10-20T16:19:05.448Z,101541.97
2022-10-20T16:21:34.012Z,101543.44
2022-10-20T16:24:01.222Z,101551.00
2022-10-20T16:26:28.189Z,101554.56
2022-10-20T16:28:55.094Z,101553.47
2022-10-20T16:31:21.996Z,101558.34
2022-10-20T16:33:49.312Z,101559.38
2022-10-20T16:36:18.392Z,101564.63
2022-10-20T16:38:45.386Z,101573.44
2022-10-20T16:41:14.708Z,101568.13
2022-10-20T16:43:45.209Z,101573.94
2022-10-20T16:46:13.302Z,101573.50
2022-10-20T16:48:42.686Z,101578.28
2022-10-20T16:51:12.874Z,101572.47
2022-10-20T16:53:39.813Z,101576.97
2022-10-20T16:56:07.969Z,101589.22
2022-10-20T16:58:35.466Z,101583.91
2022-10-20T17:01:12.335Z,101583.78
2022-10-20T17:06:18.357Z,101594.16
2022-10-20T17:08:45.389Z,101592.50
2022-10-20T17:11:18.180Z,101601.13
2022-10-20T17:13:45.617Z,101607.34
2022-10-20T17:16:20.696Z,101605.88
2022-10-20T17:18:49.547Z,101615.25
2022-10-20T17:21:16.666Z,101614.38
2022-10-20T17:23:44.927Z,101622.53
2022-10-20T17:26:15.457Z,101617.25
2022-10-20T17:28:42.578Z,101621.88
2022-10-20T17:31:13.460Z,101629.88
2022-10-20T17:33:41.008Z,101631.63
2022-10-20T17:36:08.794Z,101632.50
2022-10-20T17:38:36.259Z,101633.38
2022-10-20T17:41:04.874Z,101626.34
2022-10-20T17:43:32.168Z,101625.41
2022-10-20T17:46:01.133Z,101628.88
2022-10-20T17:48:28.172Z,101628.81
2022-10-20T17:51:04.077Z,101629.72
2022-10-20T17:53:33.335Z,101633.16
2022-10-20T17:56:04.850Z,101630.63
2022-10-20T17:58:33.748Z,101632.31
2022-10-20T18:01:24.921Z,101628.66
2022-10-20T18:04:15.292Z,101629.56
2022-10-20T18:06:43.986Z,101641.03
2022-10-20T18:09:17.704Z,101632.16
2022-10-20T18:11:47.891Z,101629.59
2022-10-20T18:14:15.134Z,101636.72
2022-10-20T18:16:42.185Z,101647.28
2022-10-20T18:19:14.301Z,101640.41
2022-10-20T18:21:41.397Z,101652.78
2022-10-20T18:24:11.245Z,101651.00
2022-10-20T18:26:38.809Z,101648.34
2022-10-20T18:29:08.488Z,101655.41
2022-10-20T18:31:37.578Z,101651.00
2022-10-20T18:34:11.016Z,101654.50
2022-10-20T18:36:41.865Z,101656.28
2022-10-20T18:39:12.074Z,101663.28
2022-10-20T18:41:41.251Z,101664.94
2022-10-20T18:44:12.673Z,101666.69
2022-10-20T18:46:40.107Z,101677.28
2022-10-20T18:49:08.434Z,101678.06
2022-10-20T18:51:36.313Z,101678.06
2022-10-20T18:54:04.709Z,101677.22
2022-10-20T18:56:31.844Z,101685.19
2022-10-20T18:59:01.581Z,101691.06
2022-10-20T19:01:31.398Z,101691.06
2022-10-20T19:03:59.189Z,101690.38
2022-10-20T19:06:27.762Z,101687.78
2022-10-20T19:08:57.953Z,101693.84
2022-10-20T19:11:28.275Z,101693.84
2022-10-20T19:13:56.853Z,101697.41
2022-10-20T19:16:26.366Z,101701.88
2022-10-20T19:18:55.489Z,101713.50
2022-10-20T19:21:24.005Z,101715.53
2022-10-20T19:23:53.933Z,101712.25
2022-10-20T19:26:36.563Z,101717.41
2022-10-20T19:29:10.129Z,101722.72
2022-10-20T19:31:42.899Z,101720.59
2022-10-20T19:34:16.357Z,101725.84
2022-10-20T19:36:46.663Z,101733.06
2022-10-20T19:39:20.050Z,101731.47
2022-10-20T19:41:47.663Z,101734.75
2022-10-20T19:44:17.462Z,101732.94
2022-10-20T19:46:46.500Z,101734.81
2022-10-20T19:49:13.953Z,101732.28
2022-10-20T19:51:41.653Z,101744.78
2022-10-20T19:54:08.768Z,101742.72
2022-10-20T19:56:36.107Z,101741.78
2022-10-20T19:59:04.901Z,101745.31
2022-10-20T20:01:32.710Z,101750.81
2022-10-20T20:03:59.949Z,101753.41
2022-10-20T20:06:28.558Z,101755.97
2022-10-20T20:08:59.418Z,101756.19
2022-10-20T20:11:29.668Z,101760.56
2022-10-20T20:14:02.679Z,101751.69
2022-10-20T20:16:29.664Z,101750.56
2022-10-20T20:18:57.145Z,101757.88
2022-10-20T20:21:24.777Z,101767.66
2022-10-20T20:24:00.805Z,101766.75
2022-10-20T20:26:30.338Z,101773.78
2022-10-20T20:28:58.102Z,101778.13
2022-10-20T20:31:25.841Z,101778.00
2022-10-20T20:33:53.674Z,101774.25
2022-10-20T20:36:21.147Z,101774.25
2022-10-20T20:38:48.139Z,101778.22
2022-10-20T20:41:17.055Z,101778.06
2022-10-20T20:43:47.536Z,101771.09
2022-10-20T20:46:17.303Z,101772.06
2022-10-20T20:48:44.904Z,101767.94
2022-10-20T20:51:12.714Z,101779.34
2022-10-20T20:53:40.597Z,101785.63
2022-10-20T20:56:09.902Z,101790.75
2022-10-20T20:58:37.911Z,101795.06
2022-10-20T21:01:11.189Z,101794.22
2022-10-20T21:03:39.026Z,101799.41
2022-10-20T21:06:12.030Z,101797.28
2022-10-20T21:08:41.079Z,101790.00
2022-10-20T21:11:09.218Z,101789.59
2022-10-20T21:13:37.026Z,101798.91
2022-10-20T21:16:12.592Z,101802.81
2022-10-20T21:18:41.049Z,101804.56
2022-10-20T21:21:16.404Z,101809.72
2022-10-20T21:23:43.546Z,101807.72
2022-10-20T21:26:11.726Z,101805.88
2022-10-20T21:28:39.308Z,101805.22
2022-10-20T21:31:07.969Z,101803.41
2022-10-20T21:33:36.021Z,101796.56
2022-10-20T21:36:05.203Z,101798.31
2022-10-20T21:38:36.379Z,101803.94
2022-10-20T21:41:05.728Z,101804.00
2022-10-20T21:43:33.758Z,101795.75
2022-10-20T21:46:23.104Z,101796.16
2022-10-20T21:48:51.812Z,101796.22
2022-10-20T21:51:22.288Z,101803.28
2022-10-20T21:53:49.566Z,101807.94
2022-10-20T21:56:16.612Z,101809.78
2022-10-20T21:58:43.470Z,101807.88
2022-10-20T22:01:11.066Z,101814.22
2022-10-20T22:03:38.064Z,101807.06
2022-10-20T22:06:06.088Z,101808.59
2022-10-20T22:08:38.477Z,101801.41
2022-10-20T22:11:07.703Z,101808.72
2022-10-20T22:13:34.706Z,101814.06
2022-10-20T22:16:02.168Z,101813.91
2022-10-20T22:18:29.012Z,101811.22
2022-10-20T22:20:55.870Z,101802.22
2022-10-20T22:23:22.738Z,101810.22
2022-10-20T22:25:53.905Z,101806.53
2022-10-20T22:28:20.807Z,101812.88
2022-10-20T22:30:47.768Z,101817.81
2022-10-20T22:33:14.704Z,101815.41
2022-10-20T22:35:41.641Z,101821.75
2022-10-20T22:38:08.649Z,101821.63
2022-10-20T22:40:35.834Z,101818.50
2022-10-20T22:43:02.899Z,101820.41
2022-10-20T22:45:29.932Z,101832.50
2022-10-20T22:47:56.854Z,101820.88
2022-10-20T22:50:24.145Z,101821.56
2022-10-20T22:52:51.076Z,101823.31
2022-10-20T22:55:18.842Z,101821.22
2022-10-20T22:57:50.059Z,101820.91
2022-10-20T23:00:18.377Z,101824.13
2022-10-20T23:02:45.744Z,101824.81
2022-10-20T23:05:12.807Z,101830.22
2022-10-20T23:07:40.356Z,101825.63
2022-10-20T23:10:08.272Z,101826.56
2022-10-20T23:12:35.781Z,101820.66
2022-10-20T23:15:03.553Z,101826.31
2022-10-20T23:17:30.515Z,101818.31
2022-10-20T23:19:57.661Z,101827.34
2022-10-20T23:22:24.870Z,101823.44
2022-10-20T23:24:51.834Z,101828.41
2022-10-20T23:27:18.677Z,101832.09
2022-10-20T23:29:45.547Z,101827.78
2022-10-20T23:32:12.413Z,101819.72
2022-10-20T23:34:39.295Z,101820.00
2022-10-20T23:37:06.143Z,101820.31
2022-10-20T23:39:33.059Z,101820.25
2022-10-20T23:42:03.465Z,101823.09
2022-10-20T23:44:34.035Z,101827.13
2022-10-20T23:47:00.932Z,101827.72
2022-10-20T23:49:27.809Z,101837.03
2022-10-20T23:51:54.706Z,101834.91
2022-10-20T23:54:21.793Z,101831.53
2022-10-20T23:56:48.706Z,101823.00
2022-10-20T23:59:15.598Z,101825.09
